sensor_id;sensor_type;location;lat;lon;timestamp;pressure;altitude;pressure_sealevel;temperature;humidity
9009;BME280;62813;51.424;6.762;2023-03-18T00:01:58;100573.94;;;12.22;73.93
9009;BME280;62813;51.424;6.762;2023-03-18T00:04:25;100570.50;;;12.21;74.10
9009;BME280;62813;51.424;6.762;2023-03-18T00:06:52;100568.97;;;12.17;74.20
9009;BME280;62813;51.424;6.762;2023-03-18T00:09:20;100566.63;;;12.13;74.53
9009;BME280;62813;51.424;6.762;2023-03-18T00:11:47;100563.94;;;12.14;74.03
9009;BME280;62813;51.424;6.762;2023-03-18T00:14:14;100563.75;;;12.17;73.99
9009;BME280;62813;51.424;6.762;2023-03-18T00:16:41;100563.75;;;12.17;74.16
9009;BME280;62813;51.424;6.762;2023-03-18T00:19:07;100568.50;;;12.09;74.25
9009;BME280;62813;51.424;6.762;2023-03-18T00:21:34;100585.06;;;12.08;74.36
9009;BME280;62813;51.424;6.762;2023-03-18T00:24:00;100594.06;;;12.01;75.27
9009;BME280;62813;51.424;6.762;2023-03-18T00:26:27;100590.84;;;11.96;75.11
9009;BME280;62813;51.424;6.762;2023-03-18T00:28:55;100593.44;;;11.96;75.22
9009;BME280;62813;51.424;6.762;2023-03-18T00:31:23;100583.13;;;11.94;75.27
9009;BME280;62813;51.424;6.762;2023-03-18T00:33:50;100580.75;;;11.90;75.71
9009;BME280;62813;51.424;6.762;2023-03-18T00:36:18;100582.88;;;11.82;75.88
9009;BME280;62813;51.424;6.762;2023-03-18T00:38:53;100577.53;;;11.85;75.92
9009;BME280;62813;51.424;6.762;2023-03-18T00:41:26;100583.66;;;11.84;76.24
9009;BME280;62813;51.424;6.762;2023-03-18T00:43:54;100574.78;;;11.88;75.72
9009;BME280;62813;51.424;6.762;2023-03-18T00:46:34;100582.75;;;11.85;75.79
9009;BME280;62813;51.424;6.762;2023-03-18T00:49:04;100585.25;;;11.86;76.02
9009;BME280;62813;51.424;6.762;2023-03-18T00:51:33;100583.81;;;11.81;75.91
9009;BME280;62813;51.424;6.762;2023-03-18T00:54:02;100581.19;;;11.81;76.21
9009;BME280;62813;51.424;6.762;2023-03-18T00:56:32;100572.34;;;11.85;76.05
9009;BME280;62813;51.424;6.762;2023-03-18T00:58:59;100562.78;;;11.85;76.13
9009;BME280;62813;51.424;6.762;2023-03-18T01:01:26;100559.19;;;11.88;75.75
9009;BME280;62813;51.424;6.762;2023-03-18T01:03:53;100570.34;;;11.90;76.00
9009;BME280;62813;51.424;6.762;2023-03-18T01:06:24;100571.13;;;11.92;75.87
9009;BME280;62813;51.424;6.762;2023-03-18T01:08:51;100580.91;;;11.87;76.20
9009;BME280;62813;51.424;6.762;2023-03-18T01:11:19;100584.44;;;11.86;75.92
9009;BME280;62813;51.424;6.762;2023-03-18T01:13:45;100591.47;;;11.84;76.57
9009;BME280;62813;51.424;6.762;2023-03-18T01:16:13;100593.28;;;11.82;75.96
9009;BME280;62813;51.424;6.762;2023-03-18T01:18:41;100587.94;;;11.85;76.03
9009;BME280;62813;51.424;6.762;2023-03-18T01:21:09;100583.66;;;11.84;76.48
9009;BME280;62813;51.424;6.762;2023-03-18T01:23:36;100584.88;;;11.77;77.10
9009;BME280;62813;51.424;6.762;2023-03-18T01:26:03;100590.22;;;11.74;77.00
9009;BME280;62813;51.424;6.762;2023-03-18T01:28:30;100594.50;;;11.75;77.03
9009;BME280;62813;51.424;6.762;2023-03-18T01:30:57;100593.03;;;11.69;77.46
9009;BME280;62813;51.424;6.762;2023-03-18T01:33:24;100602.38;;;11.73;78.38
9009;BME280;62813;51.424;6.762;2023-03-18T01:35:56;100600.78;;;11.70;78.78
9009;BME280;62813;51.424;6.762;2023-03-18T01:38:25;100599.94;;;11.70;79.78
9009;BME280;62813;51.424;6.762;2023-03-18T01:40:52;100601.81;;;11.66;80.49
9009;BME280;62813;51.424;6.762;2023-03-18T01:43:25;100611.31;;;11.67;80.93
9009;BME280;62813;51.424;6.762;2023-03-18T01:45:55;100607.09;;;11.65;81.07
9009;BME280;62813;51.424;6.762;2023-03-18T01:48:26;100609.50;;;11.69;80.85
9009;BME280;62813;51.424;6.762;2023-03-18T01:50:56;100611.31;;;11.67;81.33
9009;BME280;62813;51.424;6.762;2023-03-18T01:53:28;100604.34;;;11.68;81.14
9009;BME280;62813;51.424;6.762;2023-03-18T01:55:55;100607.66;;;11.72;81.02
9009;BME280;62813;51.424;6.762;2023-03-18T01:58:26;100590.22;;;11.74;81.10
9009;BME280;62813;51.424;6.762;2023-03-18T02:01:00;100584.72;;;11.80;81.07
9009;BME280;62813;51.424;6.762;2023-03-18T02:05:57;100583.44;;;11.88;80.50
9009;BME280;62813;51.424;6.762;2023-03-18T02:08:25;100582.44;;;11.91;80.34
9009;BME280;62813;51.424;6.762;2023-03-18T02:10:51;100585.41;;;11.83;80.33
9009;BME280;62813;51.424;6.762;2023-03-18T02:13:18;100581.38;;;11.78;80.66
9009;BME280;62813;51.424;6.762;2023-03-18T02:15:52;100590.09;;;11.77;80.99
9009;BME280;62813;51.424;6.762;2023-03-18T02:18:25;100586.41;;;11.81;80.77
9009;BME280;62813;51.424;6.762;2023-03-18T02:23:36;100590.56;;;11.85;80.22
9009;BME280;62813;51.424;6.762;2023-03-18T02:26:21;100593.16;;;11.85;79.92
9009;BME280;62813;51.424;6.762;2023-03-18T02:28:51;100594.13;;;11.82;80.39
9009;BME280;62813;51.424;6.762;2023-03-18T02:31:19;100590.84;;;11.79;80.23
9009;BME280;62813;51.424;6.762;2023-03-18T02:33:46;100588.16;;;11.80;80.01
9009;BME280;62813;51.424;6.762;2023-03-18T02:36:18;100579.53;;;11.80;80.65
9009;BME280;62813;51.424;6.762;2023-03-18T02:38:46;100584.63;;;11.81;80.08
9009;BME280;62813;51.424;6.762;2023-03-18T02:41:19;100583.81;;;11.81;79.85
9009;BME280;62813;51.424;6.762;2023-03-18T02:43:46;100584.81;;;11.78;80.49
9009;BME280;62813;51.424;6.762;2023-03-18T02:46:25;100584.00;;;11.76;80.12
9009;BME280;62813;51.424;6.762;2023-03-18T02:48:57;100575.44;;;11.74;80.34
9009;BME280;62813;51.424;6.762;2023-03-18T02:51:26;100583.19;;;11.76;80.14
9009;BME280;62813;51.424;6.762;2023-03-18T02:53:55;100581.38;;;11.78;80.18
9009;BME280;62813;51.424;6.762;2023-03-18T02:56:24;100588.25;;;11.79;80.27
9009;BME280;62813;51.424;6.762;2023-03-18T02:58:50;100594.28;;;11.79;79.92
9009;BME280;62813;51.424;6.762;2023-03-18T03:01:18;100595.13;;;11.80;79.98
9009;BME280;62813;51.424;6.762;2023-03-18T03:03:45;100595.13;;;11.80;80.15
9009;BME280;62813;51.424;6.762;2023-03-18T03:06:11;100603.84;;;11.79;80.09
9009;BME280;62813;51.424;6.762;2023-03-18T03:08:38;100596.97;;;11.78;80.12
9009;BME280;62813;51.424;6.762;2023-03-18T03:11:05;100612.56;;;11.78;80.47
9009;BME280;62813;51.424;6.762;2023-03-18T03:13:33;100605.59;;;11.78;80.65
9009;BME280;62813;51.424;6.762;2023-03-18T03:16:00;100601.31;;;11.77;80.51
9009;BME280;62813;51.424;6.762;2023-03-18T03:18:27;100597.09;;;11.75;80.71
9009;BME280;62813;51.424;6.762;2023-03-18T03:20:55;100604.97;;;11.73;80.59
9009;BME280;62813;51.424;6.762;2023-03-18T03:23:22;100600.78;;;11.70;80.75
9009;BME280;62813;51.424;6.762;2023-03-18T03:25:49;100605.50;;;11.62;80.56
9009;BME280;62813;51.424;6.762;2023-03-18T03:28:16;100609.00;;;11.61;80.65
9009;BME280;62813;51.424;6.762;2023-03-18T03:30:44;100610.91;;;11.58;80.95
9009;BME280;62813;51.424;6.762;2023-03-18T03:33:11;100606.69;;;11.55;81.44
9009;BME280;62813;51.424;6.762;2023-03-18T03:35:38;100617.22;;;11.52;81.26
9009;BME280;62813;51.424;6.762;2023-03-18T03:38:05;100620.59;;;11.54;81.13
9009;BME280;62813;51.424;6.762;2023-03-18T03:40:31;100615.41;;;11.54;81.28
9009;BME280;62813;51.424;6.762;2023-03-18T03:42:59;100618.06;;;11.53;82.32
9009;BME280;62813;51.424;6.762;2023-03-18T03:45:26;100617.94;;;11.56;82.04
9009;BME280;62813;51.424;6.762;2023-03-18T03:47:53;100624.00;;;11.56;82.08
9009;BME280;62813;51.424;6.762;2023-03-18T03:50:20;100624.00;;;11.56;82.58
9009;BME280;62813;51.424;6.762;2023-03-18T03:52:47;100626.22;;;11.64;82.38
9009;BME280;62813;51.424;6.762;2023-03-18T03:55:16;100628.19;;;11.59;82.72
9009;BME280;62813;51.424;6.762;2023-03-18T03:57:44;100629.03;;;11.59;82.52
9009;BME280;62813;51.424;6.762;2023-03-18T04:00:14;100630.94;;;11.56;82.85
9009;BME280;62813;51.424;6.762;2023-03-18T04:02:42;100631.72;;;11.58;83.33
9009;BME280;62813;51.424;6.762;2023-03-18T04:05:12;100637.75;;;11.58;82.95
9009;BME280;62813;51.424;6.762;2023-03-18T04:07:39;100643.88;;;11.57;83.31
9009;BME280;62813;51.424;6.762;2023-03-18T04:10:07;100643.22;;;11.52;83.87
9009;BME280;62813;51.424;6.762;2023-03-18T04:12:35;100639.03;;;11.50;83.51
9009;BME280;62813;51.424;6.762;2023-03-18T04:15:02;100643.38;;;11.49;84.52
9009;BME280;62813;51.424;6.762;2023-03-18T04:17:29;100645.66;;;11.55;83.52
9009;BME280;62813;51.424;6.762;2023-03-18T04:19:56;100655.47;;;11.50;83.98
9009;BME280;62813;51.424;6.762;2023-03-18T04:22:23;100655.47;;;11.50;84.10
9009;BME280;62813;51.424;6.762;2023-03-18T04:24:49;100657.97;;;11.52;84.15
9009;BME280;62813;51.424;6.762;2023-03-18T04:27:16;100649.97;;;11.56;83.93
9009;BME280;62813;51.424;6.762;2023-03-18T04:29:44;100652.06;;;11.48;84.82
9009;BME280;62813;51.424;6.762;2023-03-18T04:32:10;100655.59;;;11.47;84.80
9009;BME280;62813;51.424;6.762;2023-03-18T04:34:37;100657.56;;;11.42;84.73
9009;BME280;62813;51.424;6.762;2023-03-18T04:37:03;100661.78;;;11.45;85.05
9009;BME280;62813;51.424;6.762;2023-03-18T04:39:30;100665.06;;;11.48;84.56
9009;BME280;62813;51.424;6.762;2023-03-18T04:41:57;100665.94;;;11.49;84.60
9009;BME280;62813;51.424;6.762;2023-03-18T04:44:24;100670.13;;;11.51;84.36
9009;BME280;62813;51.424;6.762;2023-03-18T04:46:51;100667.66;;;11.48;84.81
9009;BME280;62813;51.424;6.762;2023-03-18T04:49:21;100674.69;;;11.46;84.74
9009;BME280;62813;51.424;6.762;2023-03-18T04:51:49;100669.38;;;11.49;84.90
9009;BME280;62813;51.424;6.762;2023-03-18T04:54:16;100665.97;;;11.47;85.11
9009;BME280;62813;51.424;6.762;2023-03-18T04:56:43;100673.72;;;11.49;84.78
9009;BME280;62813;51.424;6.762;2023-03-18T04:59:10;100672.84;;;11.48;84.78
9009;BME280;62813;51.424;6.762;2023-03-18T05:01:36;100683.91;;;11.53;84.66
9009;BME280;62813;51.424;6.762;2023-03-18T05:04:03;100682.06;;;11.55;84.48
9009;BME280;62813;51.424;6.762;2023-03-18T05:06:31;100685.53;;;11.56;84.51
9009;BME280;62813;51.424;6.762;2023-03-18T05:08:59;100690.72;;;11.56;84.08
9009;BME280;62813;51.424;6.762;2023-03-18T05:11:27;100686.22;;;11.59;84.26
9009;BME280;62813;51.424;6.762;2023-03-18T05:13:53;100686.22;;;11.59;84.26
9009;BME280;62813;51.424;6.762;2023-03-18T05:16:20;100684.97;;;11.49;84.97
9009;BME280;62813;51.424;6.762;2023-03-18T05:18:46;100685.81;;;11.50;84.80
9009;BME280;62813;51.424;6.762;2023-03-18T05:21:13;100689.38;;;11.47;84.80
9009;BME280;62813;51.424;6.762;2023-03-18T05:23:41;100689.66;;;11.41;85.20
9009;BME280;62813;51.424;6.762;2023-03-18T05:26:08;100687.91;;;11.41;85.48
9009;BME280;62813;51.424;6.762;2023-03-18T05:28:36;100689.72;;;11.39;85.15
9009;BME280;62813;51.424;6.762;2023-03-18T05:31:05;100689.72;;;11.39;85.12
9009;BME280;62813;51.424;6.762;2023-03-18T05:33:32;100687.19;;;11.38;85.38
9009;BME280;62813;51.424;6.762;2023-03-18T05:35:59;100697.53;;;11.39;85.09
9009;BME280;62813;51.424;6.762;2023-03-18T05:38:26;100692.31;;;11.39;85.30
9009;BME280;62813;51.424;6.762;2023-03-18T05:40:52;100695.63;;;11.43;84.81
9009;BME280;62813;51.424;6.762;2023-03-18T05:43:20;100695.50;;;11.46;84.70
9009;BME280;62813;51.424;6.762;2023-03-18T05:45:47;100693.81;;;11.45;84.86
9009;BME280;62813;51.424;6.762;2023-03-18T05:48:13;100700.56;;;11.49;84.82
9009;BME280;62813;51.424;6.762;2023-03-18T05:50:41;100700.56;;;11.49;84.77
9009;BME280;62813;51.424;6.762;2023-03-18T05:53:09;100704.69;;;11.53;84.51
9009;BME280;62813;51.424;6.762;2023-03-18T05:55:38;100707.94;;;11.58;84.19
9009;BME280;62813;51.424;6.762;2023-03-18T05:58:06;100710.53;;;11.58;84.04
9009;BME280;62813;51.424;6.762;2023-03-18T06:00:35;100719.09;;;11.60;84.02
9009;BME280;62813;51.424;6.762;2023-03-18T06:03:03;100715.84;;;11.55;83.84
9009;BME280;62813;51.424;6.762;2023-03-18T06:05:30;100710.66;;;11.55;83.84
9009;BME280;62813;51.424;6.762;2023-03-18T06:07:57;100713.47;;;11.51;84.37
9009;BME280;62813;51.424;6.762;2023-03-18T06:10:25;100714.19;;;11.54;84.02
9009;BME280;62813;51.424;6.762;2023-03-18T06:12:52;100720.84;;;11.60;83.68
9009;BME280;62813;51.424;6.762;2023-03-18T06:15:21;100722.63;;;11.59;83.92
9009;BME280;62813;51.424;6.762;2023-03-18T06:17:47;100729.38;;;11.63;83.45
9009;BME280;62813;51.424;6.762;2023-03-18T06:20:14;100737.94;;;11.65;83.82
9009;BME280;62813;51.424;6.762;2023-03-18T06:22:41;100725.94;;;11.63;83.40
9009;BME280;62813;51.424;6.762;2023-03-18T06:25:09;100736.94;;;11.68;82.99
9009;BME280;62813;51.424;6.762;2023-03-18T06:27:36;100740.63;;;11.64;83.39
9009;BME280;62813;51.424;6.762;2023-03-18T06:30:04;100745.09;;;11.60;83.11
9009;BME280;62813;51.424;6.762;2023-03-18T06:32:31;100743.91;;;11.67;82.92
9009;BME280;62813;51.424;6.762;2023-03-18T06:34:59;100747.16;;;11.73;83.22
9009;BME280;62813;51.424;6.762;2023-03-18T06:37:26;100748.81;;;11.74;82.91
9009;BME280;62813;51.424;6.762;2023-03-18T06:39:53;100753.38;;;11.68;82.76
9009;BME280;62813;51.424;6.762;2023-03-18T06:42:20;100754.78;;;11.76;82.60
9009;BME280;62813;51.424;6.762;2023-03-18T06:44:46;100756.78;;;11.70;82.85
9009;BME280;62813;51.424;6.762;2023-03-18T06:47:17;100756.13;;;11.65;82.56
9009;BME280;62813;51.424;6.762;2023-03-18T06:49:44;100755.97;;;11.68;82.46
9009;BME280;62813;51.424;6.762;2023-03-18T06:52:11;100754.09;;;11.72;82.45
9009;BME280;62813;51.424;6.762;2023-03-18T06:54:40;100758.88;;;11.81;82.36
9009;BME280;62813;51.424;6.762;2023-03-18T06:57:06;100760.19;;;11.90;82.29
9009;BME280;62813;51.424;6.762;2023-03-18T06:59:34;100750.31;;;11.98;81.70
9009;BME280;62813;51.424;6.762;2023-03-18T07:02:01;100753.41;;;12.06;81.70
9009;BME280;62813;51.424;6.762;2023-03-18T07:04:28;100752.94;;;12.15;81.06
9009;BME280;62813;51.424;6.762;2023-03-18T07:06:56;100757.41;;;12.13;80.86
9009;BME280;62813;51.424;6.762;2023-03-18T07:09:23;100763.28;;;12.17;80.61
9009;BME280;62813;51.424;6.762;2023-03-18T07:11:50;100753.88;;;12.14;80.60
9009;BME280;62813;51.424;6.762;2023-03-18T07:14:17;100768.28;;;12.21;80.35
9009;BME280;62813;51.424;6.762;2023-03-18T07:16:43;100762.06;;;12.24;80.47
9009;BME280;62813;51.424;6.762;2023-03-18T07:19:11;100758.97;;;12.35;79.78
9009;BME280;62813;51.424;6.762;2023-03-18T07:21:37;100765.38;;;12.28;80.28
9009;BME280;62813;51.424;6.762;2023-03-18T07:24:06;100764.94;;;12.37;80.11
9009;BME280;62813;51.424;6.762;2023-03-18T07:26:33;100771.53;;;12.44;80.00
9009;BME280;62813;51.424;6.762;2023-03-18T07:28:59;100777.09;;;12.55;79.36
9009;BME280;62813;51.424;6.762;2023-03-18T07:31:26;100775.81;;;12.64;78.74
9009;BME280;62813;51.424;6.762;2023-03-18T07:33:53;100780.19;;;12.63;79.04
9009;BME280;62813;51.424;6.762;2023-03-18T07:36:20;100774.72;;;12.50;79.06
9009;BME280;62813;51.424;6.762;2023-03-18T07:38:46;100773.28;;;12.62;78.66
9009;BME280;62813;51.424;6.762;2023-03-18T07:41:13;100781.66;;;12.69;78.93
9009;BME280;62813;51.424;6.762;2023-03-18T07:43:39;100775.25;;;12.74;78.55
9009;BME280;62813;51.424;6.762;2023-03-18T07:46:06;100787.81;;;12.66;78.70
9009;BME280;62813;51.424;6.762;2023-03-18T07:48:33;100779.03;;;12.69;78.83
9009;BME280;62813;51.424;6.762;2023-03-18T07:51:00;100786.00;;;12.68;78.47
9009;BME280;62813;51.424;6.762;2023-03-18T07:53:27;100794.97;;;12.63;78.90
9009;BME280;62813;51.424;6.762;2023-03-18T07:55:54;100793.00;;;12.49;79.49
9009;BME280;62813;51.424;6.762;2023-03-18T07:58:21;100796.19;;;12.56;79.32
9009;BME280;62813;51.424;6.762;2023-03-18T08:00:53;100797.66;;;12.61;79.05
9009;BME280;62813;51.424;6.762;2023-03-18T08:03:20;100794.84;;;12.47;79.58
9009;BME280;62813;51.424;6.762;2023-03-18T08:05:47;100790.88;;;12.38;79.60
9009;BME280;62813;51.424;6.762;2023-03-18T08:08:15;100803.78;;;12.41;79.73
9009;BME280;62813;51.424;6.762;2023-03-18T08:10:42;100810.75;;;12.41;79.74
9009;BME280;62813;51.424;6.762;2023-03-18T08:13:08;100810.28;;;12.50;79.35
9009;BME280;62813;51.424;6.762;2023-03-18T08:15:36;100818.91;;;12.52;79.23
9009;BME280;62813;51.424;6.762;2023-03-18T08:18:03;100822.81;;;12.61;78.82
9009;BME280;62813;51.424;6.762;2023-03-18T08:20:33;100819.75;;;12.52;78.96
9009;BME280;62813;51.424;6.762;2023-03-18T08:23:00;100825.91;;;12.50;79.13
9009;BME280;62813;51.424;6.762;2023-03-18T08:25:29;100817.94;;;12.55;78.68
9009;BME280;62813;51.424;6.762;2023-03-18T08:27:56;100832.53;;;12.57;78.71
9009;BME280;62813;51.424;6.762;2023-03-18T08:30:23;100821.22;;;12.58;78.89
9009;BME280;62813;51.424;6.762;2023-03-18T08:32:56;100832.09;;;12.66;78.27
9009;BME280;62813;51.424;6.762;2023-03-18T08:35:23;100830.28;;;12.68;78.55
9009;BME280;62813;51.424;6.762;2023-03-18T08:37:50;100839.41;;;12.77;78.01
9009;BME280;62813;51.424;6.762;2023-03-18T08:40:17;100834.66;;;12.85;78.19
9009;BME280;62813;51.424;6.762;2023-03-18T08:42:45;100840.88;;;13.00;77.26
9009;BME280;62813;51.424;6.762;2023-03-18T08:45:12;100843.94;;;13.08;76.84
9009;BME280;62813;51.424;6.762;2023-03-18T08:47:39;100842.50;;;13.20;76.70
9009;BME280;62813;51.424;6.762;2023-03-18T08:50:07;100840.34;;;13.28;76.56
9009;BME280;62813;51.424;6.762;2023-03-18T08:52:34;100839.56;;;13.43;75.86
9009;BME280;62813;51.424;6.762;2023-03-18T08:55:04;100838.41;;;13.49;75.03
9009;BME280;62813;51.424;6.762;2023-03-18T08:57:32;100838.19;;;13.36;75.63
9009;BME280;62813;51.424;6.762;2023-03-18T08:59:59;100841.84;;;13.49;75.08
9009;BME280;62813;51.424;6.762;2023-03-18T09:02:27;100840.13;;;13.66;74.37
9009;BME280;62813;51.424;6.762;2023-03-18T09:04:53;100843.03;;;13.77;73.93
9009;BME280;62813;51.424;6.762;2023-03-18T09:07:21;100847.84;;;13.84;73.29
9009;BME280;62813;51.424;6.762;2023-03-18T09:09:48;100843.38;;;13.86;73.25
9009;BME280;62813;51.424;6.762;2023-03-18T09:12:14;100850.16;;;13.91;73.49
9009;BME280;62813;51.424;6.762;2023-03-18T09:14:41;100849.00;;;13.96;73.55
9009;BME280;62813;51.424;6.762;2023-03-18T09:17:09;100848.31;;;14.08;72.97
9009;BME280;62813;51.424;6.762;2023-03-18T09:19:38;100857.69;;;14.12;72.63
9009;BME280;62813;51.424;6.762;2023-03-18T09:22:05;100852.13;;;14.03;72.34
9009;BME280;62813;51.424;6.762;2023-03-18T09:24:32;100856.50;;;13.85;72.53
9009;BME280;62813;51.424;6.762;2023-03-18T09:26:58;100852.88;;;13.87;72.28
9009;BME280;62813;51.424;6.762;2023-03-18T09:29:25;100852.13;;;13.85;72.24
9009;BME280;62813;51.424;6.762;2023-03-18T09:31:53;100847.41;;;13.76;72.48
9009;BME280;62813;51.424;6.762;2023-03-18T09:34:19;100849.09;;;13.77;71.98
9009;BME280;62813;51.424;6.762;2023-03-18T09:36:46;100843.69;;;13.80;72.58
9009;BME280;62813;51.424;6.762;2023-03-18T09:39:20;100848.31;;;13.93;72.19
9009;BME280;62813;51.424;6.762;2023-03-18T09:44:21;100847.00;;;14.17;71.87
9009;BME280;62813;51.424;6.762;2023-03-18T09:52:46;100846.91;;;14.03;70.58
9009;BME280;62813;51.424;6.762;2023-03-18T09:55:23;100848.81;;;14.15;70.75
9009;BME280;62813;51.424;6.762;2023-03-18T09:57:54;100845.28;;;14.16;70.93
9009;BME280;62813;51.424;6.762;2023-03-18T10:00:25;100850.50;;;14.16;70.57
9009;BME280;62813;51.424;6.762;2023-03-18T10:03:05;100849.84;;;14.28;70.36
9009;BME280;62813;51.424;6.762;2023-03-18T10:08:39;100846.84;;;14.52;69.22
9009;BME280;62813;51.424;6.762;2023-03-18T10:11:08;100841.69;;;14.66;69.74
9009;BME280;62813;51.424;6.762;2023-03-18T10:13:43;100823.50;;;14.79;68.93
9009;BME280;62813;51.424;6.762;2023-03-18T10:16:17;100835.28;;;14.86;68.64
9009;BME280;62813;51.424;6.762;2023-03-18T10:18:47;100835.63;;;14.95;68.56
9009;BME280;62813;51.424;6.762;2023-03-18T10:26:30;100826.28;;;15.21;67.53
9009;BME280;62813;51.424;6.762;2023-03-18T10:40:15;100841.13;;;15.21;66.03
9009;BME280;62813;51.424;6.762;2023-03-18T10:42:43;100839.44;;;15.20;66.04
9009;BME280;62813;51.424;6.762;2023-03-18T10:45:32;100839.66;;;15.31;65.58
9009;BME280;62813;51.424;6.762;2023-03-18T10:48:18;100836.72;;;15.21;65.04
9009;BME280;62813;51.424;6.762;2023-03-18T10:50:55;100820.72;;;15.12;65.32
9009;BME280;62813;51.424;6.762;2023-03-18T10:53:32;100832.94;;;15.11;65.44
9009;BME280;62813;51.424;6.762;2023-03-18T10:56:06;100827.88;;;15.24;65.68
9009;BME280;62813;51.424;6.762;2023-03-18T10:58:33;100823.88;;;15.33;65.51
9009;BME280;62813;51.424;6.762;2023-03-18T11:01:01;100827.13;;;15.22;65.50
9009;BME280;62813;51.424;6.762;2023-03-18T11:03:31;100828.25;;;15.32;64.93
9009;BME280;62813;51.424;6.762;2023-03-18T11:06:01;100822.31;;;15.44;64.47
9009;BME280;62813;51.424;6.762;2023-03-18T11:08:38;100821.00;;;15.51;64.15
9009;BME280;62813;51.424;6.762;2023-03-18T11:13:55;100820.66;;;15.58;63.63
9009;BME280;62813;51.424;6.762;2023-03-18T11:16:27;100819.50;;;15.62;63.35
9009;BME280;62813;51.424;6.762;2023-03-18T11:19:01;100821.75;;;15.53;63.56
9009;BME280;62813;51.424;6.762;2023-03-18T11:21:31;100832.94;;;15.56;63.39
9009;BME280;62813;51.424;6.762;2023-03-18T11:24:00;100832.56;;;15.47;63.42
9009;BME280;62813;51.424;6.762;2023-03-18T11:26:51;100825.31;;;15.52;63.39
9009;BME280;62813;51.424;6.762;2023-03-18T11:29:25;100828.28;;;15.61;62.73
9009;BME280;62813;51.424;6.762;2023-03-18T11:31:55;100828.84;;;15.51;62.76
9009;BME280;62813;51.424;6.762;2023-03-18T11:34:27;100823.25;;;15.58;62.48
9009;BME280;62813;51.424;6.762;2023-03-18T11:37:03;100834.38;;;15.61;62.45
9009;BME280;62813;51.424;6.762;2023-03-18T11:39:34;100830.34;;;15.56;62.22
9009;BME280;62813;51.424;6.762;2023-03-18T11:42:18;100824.84;;;15.60;61.58
9009;BME280;62813;51.424;6.762;2023-03-18T11:44:48;100834.56;;;15.58;61.71
9009;BME280;62813;51.424;6.762;2023-03-18T11:47:23;100829.97;;;15.62;62.20
9009;BME280;62813;51.424;6.762;2023-03-18T11:49:52;100819.88;;;15.56;62.52
9009;BME280;62813;51.424;6.762;2023-03-18T11:55:42;100830.16;;;15.59;62.05
9009;BME280;62813;51.424;6.762;2023-03-18T12:00:51;100829.81;;;15.65;62.11
9009;BME280;62813;51.424;6.762;2023-03-18T12:06:26;100822.78;;;15.94;62.14
9009;BME280;62813;51.424;6.762;2023-03-18T12:09:05;100820.03;;;16.09;62.21
9009;BME280;62813;51.424;6.762;2023-03-18T12:27:50;100814.84;;;15.81;60.51
9009;BME280;62813;51.424;6.762;2023-03-18T12:35:55;100805.56;;;15.90;60.65
9009;BME280;62813;51.424;6.762;2023-03-18T12:41:49;100806.00;;;16.11;60.24
9009;BME280;62813;51.424;6.762;2023-03-18T12:44:58;100801.63;;;15.97;60.46
9009;BME280;62813;51.424;6.762;2023-03-18T12:47:29;100804.56;;;15.92;61.03
9009;BME280;62813;51.424;6.762;2023-03-18T12:50:11;100793.78;;;15.97;61.04
9009;BME280;62813;51.424;6.762;2023-03-18T12:52:43;100792.81;;;16.12;60.74
9009;BME280;62813;51.424;6.762;2023-03-18T12:55:20;100787.28;;;16.17;60.73
9009;BME280;62813;51.424;6.762;2023-03-18T12:58:00;100788.38;;;16.27;59.68
9009;BME280;62813;51.424;6.762;2023-03-18T13:03:51;100782.22;;;16.28;59.54
9009;BME280;62813;51.424;6.762;2023-03-18T13:05:52;100786.56;;;16.15;59.65
9009;BME280;62813;51.424;6.762;2023-03-18T13:11:17;100780.94;;;16.21;59.96
9009;BME280;62813;51.424;6.762;2023-03-18T13:13:51;100778.50;;;16.18;59.83
9009;BME280;62813;51.424;6.762;2023-03-18T13:16:21;100780.16;;;16.19;59.96
9009;BME280;62813;51.424;6.762;2023-03-18T13:18:51;100778.78;;;16.13;59.99
9009;BME280;62813;51.424;6.762;2023-03-18T13:21:21;100782.09;;;16.02;59.70
9009;BME280;62813;51.424;6.762;2023-03-18T13:24:19;100782.47;;;15.96;60.43
9009;BME280;62813;51.424;6.762;2023-03-18T13:30:12;100784.53;;;15.91;60.35
9009;BME280;62813;51.424;6.762;2023-03-18T13:41:06;100775.00;;;15.76;61.19
9009;BME280;62813;51.424;6.762;2023-03-18T13:43:39;100765.47;;;15.75;61.90
9009;BME280;62813;51.424;6.762;2023-03-18T13:46:19;100766.78;;;15.82;62.06
9009;BME280;62813;51.424;6.762;2023-03-18T13:48:54;100768.00;;;15.76;63.01
9009;BME280;62813;51.424;6.762;2023-03-18T13:54:01;100772.50;;;15.60;64.67
9009;BME280;62813;51.424;6.762;2023-03-18T14:02:41;100771.31;;;15.51;65.74
9009;BME280;62813;51.424;6.762;2023-03-18T14:05:38;100776.44;;;15.39;65.96
9009;BME280;62813;51.424;6.762;2023-03-18T14:14:00;100803.31;;;14.96;72.03
9009;BME280;62813;51.424;6.762;2023-03-18T14:19:17;100787.41;;;14.85;76.93
9009;BME280;62813;51.424;6.762;2023-03-18T14:21:52;100788.22;;;15.02;78.06
9009;BME280;62813;51.424;6.762;2023-03-18T14:24:24;100802.25;;;15.15;80.36
9009;BME280;62813;51.424;6.762;2023-03-18T14:29:36;100797.84;;;15.45;78.78
9009;BME280;62813;51.424;6.762;2023-03-18T14:40:45;100795.00;;;15.63;78.61
9009;BME280;62813;51.424;6.762;2023-03-18T14:46:02;100796.69;;;15.64;78.22
9009;BME280;62813;51.424;6.762;2023-03-18T14:48:32;100783.06;;;15.59;78.63
9009;BME280;62813;51.424;6.762;2023-03-18T14:51:02;100776.53;;;15.51;78.52
9009;BME280;62813;51.424;6.762;2023-03-18T14:53:36;100781.19;;;15.46;78.12
9009;BME280;62813;51.424;6.762;2023-03-18T14:56:15;100779.63;;;15.44;77.93
9009;BME280;62813;51.424;6.762;2023-03-18T14:58:44;100779.63;;;15.44;77.92
9009;BME280;62813;51.424;6.762;2023-03-18T15:01:13;100777.75;;;15.46;77.90
9009;BME280;62813;51.424;6.762;2023-03-18T15:03:46;100777.75;;;15.46;77.46
9009;BME280;62813;51.424;6.762;2023-03-18T15:06:20;100771.41;;;15.50;77.47
9009;BME280;62813;51.424;6.762;2023-03-18T15:08:55;100771.31;;;15.51;77.38
9009;BME280;62813;51.424;6.762;2023-03-18T15:11:24;100770.16;;;15.56;77.17